Dos Palos, CA (93620)

2:18 AM PST on November 26, 2014 (GMT -0800)
RAWS SAN LUIS PORTABLE CA US | Change Station
CLOSE
Current Station
Personal Weather Station
Location: Los Banos, CA
Elevation: 69 ft
Nearby Weather Stations

Elev 69 ft 37.07 °N, 120.80 °W | Updated 44 minutes ago

Clear
Clear
43 °F
Feels Like 43 °F
N
3
Wind Variable Wind from ENE
Gusts 4.0 mph

Today
High -- | Low -- °F
--% Chance of Precip.
Yesterday
High -- | Low -- °F
Precip. -- in
6:52 AM 4:47 PM
Waxing Crescent, 18% visible
Pressure 30.34 in
Visibility 4.0 miles
Clouds Clear
Windchill 43 °F
Dew Point 43 °F
Humidity 100%
Rainfall 0.00 in
Snow Depth Not available.
UV 0 out of 12
Pollen .80 out of 12
Air Quality Not available.
Flu Activity Not available.
METAR KMCE 260953Z AUTO 10003KT 4SM BR CLR 06/04 A3034 RMK AO2 SLP273 T00610044

More Conditions Fewer Conditions

Pressure 30.34 in
Visibility 4.0 miles
Clouds Clear
Windchill 43 °F
Dew Point 43 °F
Humidity 100%
Rainfall 0.00 in
Snow Depth Not available.
UV 0 out of 12
Pollen .80 out of 12
Air Quality Not available.
Flu Activity Not available.
METAR KMCE 260953Z AUTO 10003KT 4SM BR CLR 06/04 A3034 RMK AO2 SLP273 T00610044

More Conditions Fewer Conditions

10-Day Weather Forecast

Almanac

Astronomy

Nov. 26, 2014 Rise Set
Actual Time
Civil Twilight
Nautical Twilight
Astronomical Twilight
Moon
Length of Visible Light
Length of Day
Tomorrow will be .
, % of the Moon is Illuminated

Today's Extremes

State Highs State Lows

Community

WunderPhotos

Upload Photos

1,773,704 photos uploaded!

WunderBlogs® & News

Nearby

Air Quality

  Air Quality AQ Index Pollutant
Not available.

Snow Depth

Station Depth Elevation

Earthquake Activity

City Distance Mag. Time & Date
Minimum magnitude displayed is 2.5.

Coastal Water Temperatures

Place Temperature

Nearby Weather Stations